Nasudden, Sweden

5:12 AM CEST on September 03, 2014 (GMT +0200)
Visby | Change Station
CLOSE
Current Station
Airport
Location: Visby Flygplats,
Elevation: 154 ft
Nearby Weather Stations

Elev 154 ft 57.66 °N, 18.35 °E | Updated 52 minutes ago

Clear
Clear
48 °F
Feels Like 48 °F
N
6
Wind Variable Wind from SSW

Today
High -- | Low -- °F
--% Chance of Precip.
Yesterday
High -- | Low -- °F
Precip. -- in
5:52 AM 7:38 PM
First Quarter, 57% visible
Pressure 30.36 in
Visibility 6.2 miles
Clouds
Dew Point 48 °F
Humidity 100%
Rainfall 0.00 in
Snow Depth Not available.
UV Not available.
Pollen Not available.
Air Quality Not available.
Flu Activity Not available.
METAR ESSV 030220Z AUTO 20005KT 9999NDV NCD 09/09 Q1028

More Conditions Fewer Conditions

Pressure 30.36 in
Visibility 6.2 miles
Clouds
Dew Point 48 °F
Humidity 100%
Rainfall 0.00 in
Snow Depth Not available.
UV Not available.
Pollen Not available.
Air Quality Not available.
Flu Activity Not available.
METAR ESSV 030220Z AUTO 20005KT 9999NDV NCD 09/09 Q1028

More Conditions Fewer Conditions

10-Day Weather Forecast

Almanac

Astronomy

Sep. 03, 2014 Rise Set
Actual Time 5:52 AM CEST 7:38 PM CEST
Civil Twilight 5:12 AM CEST 8:19 PM CEST
Nautical Twilight 4:21 AM CEST 9:09 PM CEST
Astronomical Twilight 3:21 AM CEST 10:08 PM CEST
Moon 3:43 PM CEST 11:48 PM CEST
Length of Visible Light 15h 06m
Length of Day
13h 46m
Tomorrow will be 4m 45s shorter.
First Quarter, 57% of the Moon is Illuminated
Sep 2
First Quarter
Sep 8
Full
Sep 15
Last Quarter
Sep 24
New
Oct 1
First Quarter

Yesterday's Extremes

Country Highs Country Lows

Community

WunderPhotos

Upload Photos

1,749,862 photos uploaded!

Nearby

Snow Depth

Not available.

Earthquake Activity

City Distance Mag. Time & Date
No recent earthquake activity has been reported nearby.
Minimum magnitude displayed is 2.5.

Coastal Water Temperatures

Place Temperature
No Stations Reporting

Nearby Weather Stations